F/V Roger Christian3 — FUFL — position and weather

sailwx.info

Track history (hours):
 
Tides and Currents Weather Stations Pressure Air Temp Water Temp Dewpoint Dewpoint Depression Visibility Wind Speed Wind Dir Waves Ship Positions

F/V Roger Christian3

Last reported at 2017-Jul-22 06:30 UTC. Time now 2017-Jul-22 06:33 UTC.
Position N 43°24' E 003°42'.

Length 24 m; draft 4 m.

Type: Fishing. MMSI: 228173800.

Date/timePositionNaut miles runAvg speedWind from/ knotsBaromVisibWave heightAir tempDewpointWater temp
2017-Jul-22 06:30N 43°24' E 003°42'0 0.0
2017-Jul-22 05:57N 43°24' E 003°42'0 0.0
2017-Jul-22 05:30N 43°24' E 003°42'0 0.0
2017-Jul-22 04:41N 43°24' E 003°42'0 0.0
2017-Jul-22 04:30N 43°24' E 003°42'0 0.0
2017-Jul-22 04:00N 43°24' E 003°42'0 0.0
2017-Jul-22 03:31N 43°24' E 003°42'0 0.0
2017-Jul-22 03:00N 43°24' E 003°42'0 0.0
2017-Jul-22 02:30N 43°24' E 003°42'0 0.0
2017-Jul-22 02:00N 43°24' E 003°42'0 0.0
2017-Jul-22 01:31N 43°24' E 003°42'0 0.0
2017-Jul-22 01:00N 43°24' E 003°42'0 0.0
2017-Jul-22 00:30N 43°24' E 003°42'0 0.0
2017-Jul-22 00:00N 43°24' E 003°42'0 0.0
2017-Jul-21 23:30N 43°24' E 003°42'0 0.0
2017-Jul-21 23:01N 43°24' E 003°42'0 0.0
2017-Jul-21 22:26N 43°24' E 003°42'0 0.0
2017-Jul-21 17:07N 43°24' E 003°42'0 0.0
2017-Jul-21 16:59N 43°24' E 003°42'0 0.0
2017-Jul-21 16:31N 43°24' E 003°42'0 0.2
2017-Jul-21 16:01N 43°24' E 003°42'3 6.7
2017-Jul-21 15:30N 43°21' E 003°42'611.5
2017-Jul-21 14:59N 43°14' E 003°43'611.8
2017-Jul-21 14:29N 43°09' E 003°44'15 0.7
2017-Jul-20 16:48N 43°24' E 003°42'0 1.1
2017-Jul-20 16:26N 43°24' E 003°42'0 0.7
2017-Jul-20 16:01N 43°24' E 003°42'0 0.4
2017-Jul-20 15:29N 43°24' E 003°42'24 7.4
2017-Jul-20 12:15N 42°60' E 003°40'2 4.2
2017-Jul-20 11:53N 42°58' E 003°41'26 2.1
2017-Jul-19 23:44N 43°24' E 003°42'0 0.0
2017-Jul-19 23:30N 43°24' E 003°42'0 0.0
2017-Jul-19 22:59N 43°24' E 003°42'0 0.0
2017-Jul-19 22:30N 43°24' E 003°42'0 0.0
2017-Jul-19 21:59N 43°24' E 003°42'0 0.0
2017-Jul-19 21:30N 43°24' E 003°42'0 0.0
2017-Jul-19 20:52N 43°24' E 003°42'0 0.0
2017-Jul-19 20:30N 43°24' E 003°42'0 0.0
2017-Jul-19 16:19N 43°24' E 003°42'0 0.0
2017-Jul-19 16:00N 43°24' E 003°42'1 2.7
2017-Jul-19 15:27N 43°24' E 003°44'511.3
2017-Jul-19 15:00N 43°21' E 003°49'611.7
2017-Jul-19 14:30N 43°17' E 003°56'1 2.8
2017-Jul-19 14:00N 43°16' E 003°57'2 4.3
2017-Jul-19 13:30N 43°15' E 003°59'2 4.3
2017-Jul-19 12:56N 43°14' E 004°02'2 4.4
2017-Jul-19 12:30N 43°13' E 004°05'2 4.4
2017-Jul-19 12:00N 43°13' E 004°08'2 4.4
2017-Jul-19 11:30N 43°12' E 004°11'3 6.0
2017-Jul-19 11:00N 43°11' E 004°14'1 2.7
2017-Jul-19 10:30N 43°10' E 004°16'2 4.3
2017-Jul-19 09:58N 43°09' E 004°19'2 4.4
2017-Jul-19 09:28N 43°08' E 004°21'2 4.4
2017-Jul-19 08:58N 43°07' E 004°24'2 4.3
2017-Jul-19 08:30N 43°07' E 004°27'2 4.2
2017-Jul-19 08:00N 43°06' E 004°29'2 4.3
2017-Jul-19 07:30N 43°04' E 004°30'2 3.8
2017-Jul-19 07:00N 43°02' E 004°30'2 3.1
2017-Jul-19 06:30N 43°01' E 004°28'2 4.1
2017-Jul-19 06:00N 43°03' E 004°26'2 4.3
2017-Jul-19 05:30N 43°04' E 004°24'2 4.3
2017-Jul-19 05:00N 43°05' E 004°21'2 4.3
2017-Jul-19 04:30N 43°07' E 004°19'2 4.4
2017-Jul-19 04:00N 43°08' E 004°17'2 4.4
2017-Jul-19 03:30N 43°10' E 004°15'3 5.6
2017-Jul-19 03:00N 43°12' E 004°12'510.9
2017-Jul-19 02:30N 43°14' E 004°05'611.1
2017-Jul-19 02:00N 43°17' E 003°59'611.1
2017-Jul-19 01:30N 43°19' E 003°52'611.2
2017-Jul-19 01:00N 43°22' E 003°45'3 5.9
2017-Jul-19 00:30N 43°24' E 003°42'0 0.0
2017-Jul-19 00:00N 43°24' E 003°42'0 0.0
2017-Jul-18 23:30N 43°24' E 003°42'0 0.0
2017-Jul-18 23:00N 43°24' E 003°42'0 0.0
2017-Jul-18 22:30N 43°24' E 003°42'0 0.0
2017-Jul-18 22:00N 43°24' E 003°42'0 0.0
2017-Jul-18 21:30N 43°24' E 003°42'0 0.0
2017-Jul-18 21:00N 43°24' E 003°42'0 0.0
2017-Jul-18 20:30N 43°24' E 003°42'0 0.0
2017-Jul-18 20:00N 43°24' E 003°42'0 0.0
2017-Jul-18 19:30N 43°24' E 003°42'0 0.0
2017-Jul-18 19:00N 43°24' E 003°42'0 0.0
2017-Jul-18 18:30N 43°24' E 003°42'0 0.0
2017-Jul-18 18:00N 43°24' E 003°42'0 0.0
2017-Jul-18 17:30N 43°24' E 003°42'0 0.7
2017-Jul-18 17:00N 43°24' E 003°42'0 0.0
2017-Jul-18 16:30N 43°24' E 003°42'0 0.5
2017-Jul-18 16:00N 43°24' E 003°42'2 3.2
2017-Jul-18 15:30N 43°24' E 003°44'611.6
2017-Jul-18 15:00N 43°21' E 003°51'8 8.2
2017-Jul-18 14:00N 43°16' E 004°00'2 4.3
2017-Jul-18 13:30N 43°15' E 004°02'2 4.3
2017-Jul-18 13:00N 43°14' E 004°05'5 4.4
2017-Jul-18 11:55N 43°11' E 004°10'4 4.6
2017-Jul-18 11:04N 43°09' E 004°15'1 8.5
2017-Jul-18 11:00N 43°09' E 004°16'7 3.9
2017-Jul-18 09:09N 43°03' E 004°21'1 4.3
2017-Jul-18 09:00N 43°03' E 004°22'8 3.9
2017-Jul-18 07:05N 43°00' E 004°32'111.0
2017-Jul-18 07:00N 43°00' E 004°31'6 3.4
2017-Jul-18 05:20N 43°02' E 004°23'2 4.3
2017-Jul-18 04:49N 43°02' E 004°20'8 4.8
2017-Jul-18 03:06N 43°08' E 004°11'311.4
2017-Jul-18 02:50N 43°09' E 004°08'2011.5
2017-Jul-18 01:06N 43°21' E 003°46'311.3
2017-Jul-18 00:51N 43°23' E 003°43'1 0.7
2017-Jul-17 23:06N 43°24' E 003°42'0 0.0
2017-Jul-17 22:51N 43°24' E 003°42'0 0.0
2017-Jul-17 21:07N 43°24' E 003°42'0 0.0
2017-Jul-17 20:51N 43°24' E 003°42'0 0.0
2017-Jul-17 19:07N 43°24' E 003°42'0 0.0
2017-Jul-17 18:52N 43°24' E 003°42'2 0.5
2017-Jul-17 15:30N 43°24' E 003°44'711.6
2017-Jul-17 14:52N 43°20' E 003°52'9 4.9
2017-Jul-17 13:08N 43°16' E 004°03'1 4.3
2017-Jul-17 12:52N 43°15' E 004°04'8 4.5
2017-Jul-17 11:08N 43°11' E 004°13'1 3.8
2017-Jul-17 10:52N 43°11' E 004°14'7 4.1
2017-Jul-17 09:07N 43°07' E 004°22'1 4.3
2017-Jul-17 08:53N 43°06' E 004°24'7 4.0
2017-Jul-17 07:09N 43°02' E 004°31'1 4.4
2017-Jul-17 06:54N 43°01' E 004°30'6 3.7
2017-Jul-17 05:09N 43°03' E 004°21'1 4.3
2017-Jul-17 04:54N 43°04' E 004°20'7 4.1
2017-Jul-17 03:10N 43°08' E 004°12'311.3
2017-Jul-17 02:54N 43°10' E 004°09'2011.3
2017-Jul-17 01:07N 43°21' E 003°46'211.7
2017-Jul-17 00:55N 43°23' E 003°44'2 0.4
2017-Jul-16 20:42N 43°24' E 003°42'0 0.0
2017-Jul-16 19:11N 43°24' E 003°42'0 0.0
2017-Jul-16 18:56N 43°24' E 003°42'  
2017-Jul-13 15:24N 43°22' E 003°45'8 4.2
2017-Jul-13 13:31N 43°20' E 003°56'0 4.2
2017-Jul-13 13:30N 43°20' E 003°56'2 4.4
2017-Jul-13 12:59N 43°20' E 003°59'2 4.3
2017-Jul-13 12:30N 43°19' E 004°02'2 3.5
2017-Jul-13 12:00N 43°18' E 004°04'2 4.6
2017-Jul-13 11:30N 43°17' E 004°07'1 3.0
2017-Jul-13 11:00N 43°17' E 004°09'2 3.1
2017-Jul-13 10:30N 43°17' E 004°11'2 4.3
2017-Jul-13 10:00N 43°16' E 004°13'2 4.2
2017-Jul-13 09:30N 43°15' E 004°16'3 4.3
2017-Jul-13 08:42N 43°13' E 004°20'6 3.6
2017-Jul-13 07:10N 43°11' E 004°27'7 3.7
2017-Jul-13 05:10N 43°14' E 004°18'  
Track history (hours):
 
Tides and Currents Weather Stations Pressure Air Temp Water Temp Dewpoint Dewpoint Depression Visibility Wind Speed Wind Dir Waves Ship Positions

F/V Roger Christian3

Last reported at 2017-Jul-22 06:30 UTC. Time now 2017-Jul-22 06:33 UTC.
Position N 43°24' E 003°42'.

Length 24 m; draft 4 m.

Type: Fishing. MMSI: 228173800.

Date/timePositionNaut miles runAvg speedWind from/ knotsBaromVisibWave heightAir tempDewpointWater temp
2017-Jul-22 06:30N 43°24' E 003°42'0 0.0
2017-Jul-22 05:57N 43°24' E 003°42'0 0.0
2017-Jul-22 05:30N 43°24' E 003°42'0 0.0
2017-Jul-22 04:41N 43°24' E 003°42'0 0.0
2017-Jul-22 04:30N 43°24' E 003°42'0 0.0
2017-Jul-22 04:00N 43°24' E 003°42'0 0.0
2017-Jul-22 03:31N 43°24' E 003°42'0 0.0
2017-Jul-22 03:00N 43°24' E 003°42'0 0.0
2017-Jul-22 02:30N 43°24' E 003°42'0 0.0
2017-Jul-22 02:00N 43°24' E 003°42'0 0.0
2017-Jul-22 01:31N 43°24' E 003°42'0 0.0
2017-Jul-22 01:00N 43°24' E 003°42'0 0.0
2017-Jul-22 00:30N 43°24' E 003°42'0 0.0
2017-Jul-22 00:00N 43°24' E 003°42'0 0.0
2017-Jul-21 23:30N 43°24' E 003°42'0 0.0
2017-Jul-21 23:01N 43°24' E 003°42'0 0.0
2017-Jul-21 22:26N 43°24' E 003°42'0 0.0
2017-Jul-21 17:07N 43°24' E 003°42'0 0.0
2017-Jul-21 16:59N 43°24' E 003°42'0 0.0
2017-Jul-21 16:31N 43°24' E 003°42'0 0.2
2017-Jul-21 16:01N 43°24' E 003°42'3 6.7
2017-Jul-21 15:30N 43°21' E 003°42'611.5
2017-Jul-21 14:59N 43°14' E 003°43'611.8
2017-Jul-21 14:29N 43°09' E 003°44'15 0.7
2017-Jul-20 16:48N 43°24' E 003°42'0 1.1
2017-Jul-20 16:26N 43°24' E 003°42'0 0.7
2017-Jul-20 16:01N 43°24' E 003°42'0 0.4
2017-Jul-20 15:29N 43°24' E 003°42'24 7.4
2017-Jul-20 12:15N 42°60' E 003°40'2 4.2
2017-Jul-20 11:53N 42°58' E 003°41'26 2.1
2017-Jul-19 23:44N 43°24' E 003°42'0 0.0
2017-Jul-19 23:30N 43°24' E 003°42'0 0.0
2017-Jul-19 22:59N 43°24' E 003°42'0 0.0
2017-Jul-19 22:30N 43°24' E 003°42'0 0.0
2017-Jul-19 21:59N 43°24' E 003°42'0 0.0
2017-Jul-19 21:30N 43°24' E 003°42'0 0.0
2017-Jul-19 20:52N 43°24' E 003°42'0 0.0
2017-Jul-19 20:30N 43°24' E 003°42'0 0.0
2017-Jul-19 16:19N 43°24' E 003°42'0 0.0
2017-Jul-19 16:00N 43°24' E 003°42'1 2.7
2017-Jul-19 15:27N 43°24' E 003°44'511.3
2017-Jul-19 15:00N 43°21' E 003°49'611.7
2017-Jul-19 14:30N 43°17' E 003°56'1 2.8
2017-Jul-19 14:00N 43°16' E 003°57'2 4.3
2017-Jul-19 13:30N 43°15' E 003°59'2 4.3
2017-Jul-19 12:56N 43°14' E 004°02'2 4.4
2017-Jul-19 12:30N 43°13' E 004°05'2 4.4
2017-Jul-19 12:00N 43°13' E 004°08'2 4.4
2017-Jul-19 11:30N 43°12' E 004°11'3 6.0
2017-Jul-19 11:00N 43°11' E 004°14'1 2.7
2017-Jul-19 10:30N 43°10' E 004°16'2 4.3
2017-Jul-19 09:58N 43°09' E 004°19'2 4.4
2017-Jul-19 09:28N 43°08' E 004°21'2 4.4
2017-Jul-19 08:58N 43°07' E 004°24'2 4.3
2017-Jul-19 08:30N 43°07' E 004°27'2 4.2
2017-Jul-19 08:00N 43°06' E 004°29'2 4.3
2017-Jul-19 07:30N 43°04' E 004°30'2 3.8
2017-Jul-19 07:00N 43°02' E 004°30'2 3.1
2017-Jul-19 06:30N 43°01' E 004°28'2 4.1
2017-Jul-19 06:00N 43°03' E 004°26'2 4.3
2017-Jul-19 05:30N 43°04' E 004°24'2 4.3
2017-Jul-19 05:00N 43°05' E 004°21'2 4.3
2017-Jul-19 04:30N 43°07' E 004°19'2 4.4
2017-Jul-19 04:00N 43°08' E 004°17'2 4.4
2017-Jul-19 03:30N 43°10' E 004°15'3 5.6
2017-Jul-19 03:00N 43°12' E 004°12'510.9
2017-Jul-19 02:30N 43°14' E 004°05'611.1
2017-Jul-19 02:00N 43°17' E 003°59'611.1
2017-Jul-19 01:30N 43°19' E 003°52'611.2
2017-Jul-19 01:00N 43°22' E 003°45'3 5.9
2017-Jul-19 00:30N 43°24' E 003°42'0 0.0
2017-Jul-19 00:00N 43°24' E 003°42'0 0.0
2017-Jul-18 23:30N 43°24' E 003°42'0 0.0
2017-Jul-18 23:00N 43°24' E 003°42'0 0.0
2017-Jul-18 22:30N 43°24' E 003°42'0 0.0
2017-Jul-18 22:00N 43°24' E 003°42'0 0.0
2017-Jul-18 21:30N 43°24' E 003°42'0 0.0
2017-Jul-18 21:00N 43°24' E 003°42'0 0.0
2017-Jul-18 20:30N 43°24' E 003°42'0 0.0
2017-Jul-18 20:00N 43°24' E 003°42'0 0.0
2017-Jul-18 19:30N 43°24' E 003°42'0 0.0
2017-Jul-18 19:00N 43°24' E 003°42'0 0.0
2017-Jul-18 18:30N 43°24' E 003°42'0 0.0
2017-Jul-18 18:00N 43°24' E 003°42'0 0.0
2017-Jul-18 17:30N 43°24' E 003°42'0 0.7
2017-Jul-18 17:00N 43°24' E 003°42'0 0.0
2017-Jul-18 16:30N 43°24' E 003°42'0 0.5
2017-Jul-18 16:00N 43°24' E 003°42'2 3.2
2017-Jul-18 15:30N 43°24' E 003°44'611.6
2017-Jul-18 15:00N 43°21' E 003°51'8 8.2
2017-Jul-18 14:00N 43°16' E 004°00'2 4.3
2017-Jul-18 13:30N 43°15' E 004°02'2 4.3
2017-Jul-18 13:00N 43°14' E 004°05'5 4.4
2017-Jul-18 11:55N 43°11' E 004°10'4 4.6
2017-Jul-18 11:04N 43°09' E 004°15'1 8.5
2017-Jul-18 11:00N 43°09' E 004°16'7 3.9
2017-Jul-18 09:09N 43°03' E 004°21'1 4.3
2017-Jul-18 09:00N 43°03' E 004°22'8 3.9
2017-Jul-18 07:05N 43°00' E 004°32'111.0
2017-Jul-18 07:00N 43°00' E 004°31'6 3.4
2017-Jul-18 05:20N 43°02' E 004°23'2 4.3
2017-Jul-18 04:49N 43°02' E 004°20'8 4.8
2017-Jul-18 03:06N 43°08' E 004°11'311.4
2017-Jul-18 02:50N 43°09' E 004°08'2011.5
2017-Jul-18 01:06N 43°21' E 003°46'311.3
2017-Jul-18 00:51N 43°23' E 003°43'1 0.7
2017-Jul-17 23:06N 43°24' E 003°42'0 0.0
2017-Jul-17 22:51N 43°24' E 003°42'0 0.0
2017-Jul-17 21:07N 43°24' E 003°42'0 0.0
2017-Jul-17 20:51N 43°24' E 003°42'0 0.0
2017-Jul-17 19:07N 43°24' E 003°42'0 0.0
2017-Jul-17 18:52N 43°24' E 003°42'2 0.5
2017-Jul-17 15:30N 43°24' E 003°44'711.6
2017-Jul-17 14:52N 43°20' E 003°52'9 4.9
2017-Jul-17 13:08N 43°16' E 004°03'1 4.3
2017-Jul-17 12:52N 43°15' E 004°04'8 4.5
2017-Jul-17 11:08N 43°11' E 004°13'1 3.8
2017-Jul-17 10:52N 43°11' E 004°14'7 4.1
2017-Jul-17 09:07N 43°07' E 004°22'1 4.3
2017-Jul-17 08:53N 43°06' E 004°24'7 4.0
2017-Jul-17 07:09N 43°02' E 004°31'1 4.4
2017-Jul-17 06:54N 43°01' E 004°30'6 3.7
2017-Jul-17 05:09N 43°03' E 004°21'1 4.3
2017-Jul-17 04:54N 43°04' E 004°20'7 4.1
2017-Jul-17 03:10N 43°08' E 004°12'311.3
2017-Jul-17 02:54N 43°10' E 004°09'2011.3
2017-Jul-17 01:07N 43°21' E 003°46'211.7
2017-Jul-17 00:55N 43°23' E 003°44'2 0.4
2017-Jul-16 20:42N 43°24' E 003°42'0 0.0
2017-Jul-16 19:11N 43°24' E 003°42'0 0.0
2017-Jul-16 18:56N 43°24' E 003°42'  
2017-Jul-13 15:24N 43°22' E 003°45'8 4.2
2017-Jul-13 13:31N 43°20' E 003°56'0 4.2
2017-Jul-13 13:30N 43°20' E 003°56'2 4.4
2017-Jul-13 12:59N 43°20' E 003°59'2 4.3
2017-Jul-13 12:30N 43°19' E 004°02'2 3.5
2017-Jul-13 12:00N 43°18' E 004°04'2 4.6
2017-Jul-13 11:30N 43°17' E 004°07'1 3.0
2017-Jul-13 11:00N 43°17' E 004°09'2 3.1
2017-Jul-13 10:30N 43°17' E 004°11'2 4.3
2017-Jul-13 10:00N 43°16' E 004°13'2 4.2
2017-Jul-13 09:30N 43°15' E 004°16'3 4.3
2017-Jul-13 08:42N 43°13' E 004°20'6 3.6
2017-Jul-13 07:10N 43°11' E 004°27'7 3.7
2017-Jul-13 05:10N 43°14' E 004°18'  

Dump ship's entire track history